createdAt,value
2023-12-24T00:02:18.269Z,0.56
2023-12-24T00:04:45.546Z,0.59
2023-12-24T00:07:12.504Z,0.55
2023-12-24T00:09:39.523Z,0.60
2023-12-24T00:12:07.674Z,0.76
2023-12-24T00:14:35.270Z,0.96
2023-12-24T00:17:02.821Z,0.79
2023-12-24T00:19:30.117Z,0.60
2023-12-24T00:21:57.577Z,0.64
2023-12-24T00:24:24.502Z,0.68
2023-12-24T00:26:51.626Z,0.64
2023-12-24T00:29:19.859Z,0.64
2023-12-24T00:31:47.073Z,0.55
2023-12-24T00:34:14.266Z,0.51
2023-12-24T00:36:41.334Z,0.47
2023-12-24T00:39:09.002Z,0.52
2023-12-24T00:41:39.413Z,0.68
2023-12-24T00:44:07.195Z,0.53
2023-12-24T00:46:34.770Z,0.49
2023-12-24T00:49:02.135Z,0.47
2023-12-24T00:51:29.389Z,0.36
2023-12-24T00:53:56.416Z,0.57
2023-12-24T00:56:23.596Z,0.67
2023-12-24T00:58:50.897Z,0.69
2023-12-24T01:01:18.171Z,0.63
2023-12-24T01:03:45.908Z,0.58
2023-12-24T01:06:13.452Z,0.59
2023-12-24T01:08:40.943Z,0.67
2023-12-24T01:11:08.438Z,0.57
2023-12-24T01:13:35.458Z,0.63
2023-12-24T01:16:02.925Z,0.53
2023-12-24T01:18:30.169Z,0.47
2023-12-24T01:20:57.906Z,0.48
2023-12-24T01:23:25.267Z,0.60
2023-12-24T01:25:52.773Z,0.62
2023-12-24T01:28:19.990Z,0.62
2023-12-24T01:30:47.168Z,0.70
2023-12-24T01:33:15.241Z,0.57
2023-12-24T01:35:45.124Z,0.44
2023-12-24T01:38:12.527Z,0.36
2023-12-24T01:40:45.659Z,0.43
2023-12-24T01:43:12.958Z,0.62
2023-12-24T01:45:40.154Z,0.75
2023-12-24T01:48:07.722Z,0.82
2023-12-24T01:50:37.311Z,0.67
2023-12-24T01:53:05.710Z,0.53
2023-12-24T01:55:32.829Z,0.54
2023-12-24T01:58:00.114Z,0.63
2023-12-24T02:00:27.580Z,0.75
2023-12-24T02:02:55.895Z,0.75
2023-12-24T02:05:23.590Z,0.81
2023-12-24T02:07:51.781Z,0.71
2023-12-24T02:10:20.114Z,0.76
2023-12-24T02:12:47.692Z,0.74
2023-12-24T02:15:15.041Z,0.76
2023-12-24T02:17:44.557Z,0.71
2023-12-24T02:20:12.268Z,0.67
2023-12-24T02:22:39.426Z,0.77
2023-12-24T02:25:06.876Z,0.66
2023-12-24T02:27:55.068Z,0.80
2023-12-24T02:30:27.355Z,0.84
2023-12-24T02:32:58.977Z,0.70
2023-12-24T02:35:33.999Z,0.67
2023-12-24T02:38:01.787Z,0.53
2023-12-24T02:40:28.974Z,0.48
2023-12-24T02:42:55.962Z,0.51
2023-12-24T02:45:23.030Z,0.63
2023-12-24T02:47:50.058Z,0.60
2023-12-24T02:50:19.795Z,0.55
2023-12-24T02:52:47.705Z,0.54
2023-12-24T02:55:14.880Z,0.67
2023-12-24T02:57:42.103Z,0.78
2023-12-24T03:00:09.889Z,0.80
2023-12-24T03:02:37.707Z,0.83
2023-12-24T03:05:05.389Z,0.80
2023-12-24T03:07:32.896Z,0.69
2023-12-24T03:10:00.024Z,0.71
2023-12-24T03:12:27.439Z,0.80
2023-12-24T03:14:55.012Z,0.83
2023-12-24T03:17:23.233Z,0.82
2023-12-24T03:19:50.724Z,0.78
2023-12-24T03:22:17.744Z,0.82
2023-12-24T03:24:44.874Z,0.83
2023-12-24T03:27:11.924Z,0.80
2023-12-24T03:29:39.209Z,0.80
2023-12-24T03:32:06.721Z,0.97
2023-12-24T03:34:33.942Z,0.94
2023-12-24T03:37:01.074Z,0.81
2023-12-24T03:39:28.167Z,0.80
2023-12-24T03:41:55.259Z,0.70
2023-12-24T03:44:22.573Z,0.60
2023-12-24T03:46:49.714Z,0.57
2023-12-24T03:49:17.545Z,0.64
2023-12-24T03:51:44.819Z,0.58
2023-12-24T03:54:12.014Z,0.60
2023-12-24T03:56:39.681Z,0.56
2023-12-24T03:59:06.890Z,0.44
2023-12-24T04:01:33.974Z,0.40
2023-12-24T04:04:01.769Z,0.49
2023-12-24T04:06:28.913Z,0.70
2023-12-24T04:08:59.255Z,0.92
2023-12-24T04:11:26.445Z,0.98
2023-12-24T04:13:53.704Z,0.91
2023-12-24T04:16:20.703Z,0.84
2023-12-24T04:18:48.299Z,0.77
2023-12-24T04:21:15.550Z,0.58
2023-12-24T04:23:42.804Z,0.62
2023-12-24T04:26:10.511Z,0.79
2023-12-24T04:28:37.717Z,0.84
2023-12-24T04:31:05.619Z,0.91
2023-12-24T04:33:32.787Z,0.86
2023-12-24T04:36:00.048Z,0.82
2023-12-24T04:38:27.373Z,0.70
2023-12-24T04:40:54.920Z,0.70
2023-12-24T04:43:22.573Z,0.68
2023-12-24T04:45:49.791Z,0.76
2023-12-24T04:48:17.002Z,0.98
2023-12-24T04:50:44.348Z,1.11
2023-12-24T04:53:11.603Z,0.98
2023-12-24T04:55:38.936Z,0.94
2023-12-24T04:58:06.072Z,0.79
2023-12-24T05:00:33.196Z,0.86
2023-12-24T05:03:00.367Z,1.01
2023-12-24T05:05:27.974Z,1.08
2023-12-24T05:07:55.077Z,1.27
2023-12-24T05:10:22.406Z,1.21
2023-12-24T05:12:49.628Z,1.29
2023-12-24T05:15:18.126Z,1.18
2023-12-24T05:17:45.473Z,1.03
2023-12-24T05:20:15.304Z,0.91
2023-12-24T05:22:42.498Z,0.87
2023-12-24T05:25:09.635Z,0.92
2023-12-24T05:27:36.807Z,1.18
2023-12-24T05:30:04.281Z,1.19
2023-12-24T05:32:31.642Z,1.10
2023-12-24T05:34:59.343Z,1.09
2023-12-24T05:37:26.655Z,0.93
2023-12-24T05:39:53.598Z,0.98
2023-12-24T05:42:20.845Z,0.99
2023-12-24T05:44:47.880Z,0.99
2023-12-24T05:47:15.235Z,1.02
2023-12-24T05:49:42.942Z,0.92
2023-12-24T05:52:10.017Z,1.12
2023-12-24T05:54:37.259Z,1.25
2023-12-24T05:57:04.881Z,1.13
2023-12-24T05:59:32.085Z,0.97
2023-12-24T06:01:59.257Z,0.84
2023-12-24T06:04:26.511Z,0.87
2023-12-24T06:06:53.795Z,0.88
2023-12-24T06:09:21.196Z,0.82
2023-12-24T06:11:48.549Z,0.88
2023-12-24T06:14:15.975Z,1.11
2023-12-24T06:16:43.019Z,1.11
2023-12-24T06:19:11.263Z,1.08
2023-12-24T06:21:40.225Z,1.14
2023-12-24T06:24:07.528Z,1.20
2023-12-24T06:26:35.042Z,1.18
2023-12-24T06:29:02.169Z,1.26
2023-12-24T06:31:29.438Z,1.24
2023-12-24T06:33:57.034Z,1.24
2023-12-24T06:36:24.154Z,1.32
2023-12-24T06:38:51.489Z,1.43
2023-12-24T06:41:18.702Z,1.43
2023-12-24T06:43:45.602Z,1.50
2023-12-24T06:46:13.962Z,1.51
2023-12-24T06:48:41.728Z,1.55
2023-12-24T06:51:09.275Z,1.43
2023-12-24T06:53:37.265Z,1.40
2023-12-24T06:56:05.209Z,1.28
2023-12-24T06:58:32.682Z,1.20
2023-12-24T07:00:59.714Z,1.22
2023-12-24T07:03:26.986Z,1.18
2023-12-24T07:05:55.250Z,1.23
2023-12-24T07:08:26.320Z,1.27
2023-12-24T07:10:53.462Z,1.25
2023-12-24T07:13:20.467Z,1.16
2023-12-24T07:15:47.725Z,1.20
2023-12-24T07:18:15.042Z,1.10
2023-12-24T07:20:42.490Z,0.95
2023-12-24T07:23:09.601Z,0.92
2023-12-24T07:25:36.809Z,0.92
2023-12-24T07:28:04.353Z,0.91
2023-12-24T07:30:31.629Z,1.01
2023-12-24T07:32:59.216Z,0.96
2023-12-24T07:35:26.884Z,0.95
2023-12-24T07:37:54.069Z,1.03
2023-12-24T07:40:21.453Z,0.96
2023-12-24T07:42:48.758Z,1.13
2023-12-24T07:45:16.297Z,1.01
2023-12-24T07:47:43.775Z,1.07
2023-12-24T07:50:10.985Z,1.26
2023-12-24T07:52:38.441Z,1.34
2023-12-24T07:55:05.976Z,1.34
2023-12-24T07:57:33.128Z,1.30
2023-12-24T08:00:00.078Z,1.35
2023-12-24T08:02:27.435Z,1.48
2023-12-24T08:04:56.791Z,1.36
2023-12-24T08:07:24.888Z,1.29
2023-12-24T08:09:52.382Z,1.36
2023-12-24T08:12:19.613Z,1.44
2023-12-24T08:14:46.661Z,1.33
2023-12-24T08:17:13.842Z,1.47
2023-12-24T08:19:40.812Z,1.44
2023-12-24T08:22:07.965Z,1.40
2023-12-24T08:24:35.500Z,1.41
2023-12-24T08:27:03.322Z,1.48
2023-12-24T08:29:32.632Z,1.46
2023-12-24T08:32:00.093Z,1.44
2023-12-24T08:34:27.909Z,1.51
2023-12-24T08:36:55.005Z,1.44
2023-12-24T08:39:22.279Z,1.26
2023-12-24T08:41:49.489Z,1.32
2023-12-24T08:44:17.576Z,1.33
2023-12-24T08:46:49.335Z,1.43
2023-12-24T08:49:17.122Z,1.47
2023-12-24T08:51:44.552Z,1.40
2023-12-24T08:54:11.699Z,1.56
2023-12-24T08:56:39.043Z,1.51
2023-12-24T08:59:08.811Z,1.61
2023-12-24T09:01:41.090Z,1.63
2023-12-24T09:04:09.104Z,1.72
2023-12-24T09:06:39.308Z,1.87
2023-12-24T09:09:06.558Z,1.75
2023-12-24T09:11:33.649Z,1.79
2023-12-24T09:14:00.912Z,1.67
2023-12-24T09:16:27.940Z,1.64
2023-12-24T09:18:55.221Z,1.61
2023-12-24T09:21:22.407Z,1.62
2023-12-24T09:23:49.502Z,1.57
2023-12-24T09:26:16.689Z,1.49
2023-12-24T09:28:43.797Z,1.57
2023-12-24T09:31:10.917Z,1.81
2023-12-24T09:33:38.190Z,1.76
2023-12-24T09:36:09.487Z,1.65
2023-12-24T09:38:37.601Z,1.75
2023-12-24T09:41:04.835Z,1.81
2023-12-24T09:43:32.551Z,1.73
2023-12-24T09:46:00.565Z,1.57
2023-12-24T09:48:27.873Z,1.54
2023-12-24T09:50:55.323Z,1.56
2023-12-24T09:53:23.538Z,1.45
2023-12-24T09:55:50.687Z,1.40
2023-12-24T09:58:18.988Z,1.34
2023-12-24T10:00:46.518Z,1.33
2023-12-24T10:03:13.648Z,1.42
2023-12-24T10:06:00.909Z,1.55
2023-12-24T10:08:28.314Z,1.53
2023-12-24T10:10:55.446Z,1.59
2023-12-24T10:13:23.293Z,1.71
2023-12-24T10:16:04.777Z,1.67
2023-12-24T10:18:33.021Z,1.68
2023-12-24T10:21:07.989Z,1.65
2023-12-24T10:23:35.381Z,1.55
2023-12-24T10:26:08.271Z,1.52
2023-12-24T10:28:35.746Z,1.57
2023-12-24T10:31:10.448Z,1.62
2023-12-24T10:33:41.446Z,1.73
2023-12-24T10:36:09.311Z,1.59
2023-12-24T10:38:37.883Z,1.56
2023-12-24T10:41:07.518Z,1.47
2023-12-24T10:43:35.224Z,1.50
2023-12-24T10:46:03.643Z,1.38
2023-12-24T10:48:30.790Z,1.28
2023-12-24T10:50:58.007Z,1.15
2023-12-24T10:53:25.251Z,1.08
2023-12-24T10:56:05.454Z,1.03
2023-12-24T10:59:01.245Z,1.05
2023-12-24T11:01:28.782Z,1.10
2023-12-24T11:03:55.917Z,1.13
2023-12-24T11:06:38.204Z,1.06
2023-12-24T11:09:07.562Z,1.05
2023-12-24T11:11:54.148Z,0.95
2023-12-24T11:14:46.017Z,0.76
2023-12-24T11:17:40.337Z,0.72
2023-12-24T11:20:20.812Z,0.86
2023-12-24T11:23:06.438Z,1.02
2023-12-24T11:25:48.318Z,1.00
2023-12-24T11:28:24.790Z,0.93
2023-12-24T11:30:52.233Z,0.86
2023-12-24T11:33:35.771Z,0.90
2023-12-24T11:36:10.022Z,0.82
2023-12-24T11:38:37.778Z,0.81
2023-12-24T11:41:08.697Z,0.79
2023-12-24T11:43:36.941Z,0.69
2023-12-24T11:46:04.544Z,0.54
2023-12-24T11:48:34.461Z,0.55
2023-12-24T11:51:08.993Z,0.54
2023-12-24T11:53:40.214Z,0.61
2023-12-24T11:56:12.862Z,0.60
2023-12-24T11:58:43.363Z,0.60
2023-12-24T12:01:11.140Z,0.49
2023-12-24T12:03:38.493Z,0.46
2023-12-24T12:06:06.497Z,0.38
2023-12-24T12:08:34.169Z,0.46
2023-12-24T12:11:01.586Z,0.40
2023-12-24T12:13:29.857Z,0.43
2023-12-24T12:15:57.010Z,0.47
2023-12-24T12:18:24.066Z,0.33
2023-12-24T12:20:51.259Z,0.36
2023-12-24T12:23:20.728Z,0.32
2023-12-24T12:25:48.090Z,0.16
2023-12-24T12:28:15.014Z,0.13
2023-12-24T12:30:42.355Z,0.04
2023-12-24T12:33:09.839Z,0.12
2023-12-24T12:35:37.079Z,0.16
2023-12-24T12:38:04.593Z,0.21
2023-12-24T12:40:36.447Z,0.12
2023-12-24T12:43:09.500Z,0.05
2023-12-24T12:45:37.523Z,-0.06
2023-12-24T12:48:05.619Z,-0.05
2023-12-24T12:50:32.920Z,-0.03
2023-12-24T12:53:00.086Z,-0.04
2023-12-24T12:55:27.277Z,-0.01
2023-12-24T12:57:54.411Z,0.03
2023-12-24T13:00:22.639Z,0.01
2023-12-24T13:02:51.325Z,-0.03
2023-12-24T13:05:28.922Z,0.01
2023-12-24T13:07:57.702Z,-0.02
2023-12-24T13:10:31.749Z,0.03
2023-12-24T13:13:23.962Z,-0.02
2023-12-24T13:16:08.815Z,-0.07
2023-12-24T13:18:37.271Z,-0.07
2023-12-24T13:21:06.033Z,-0.12
2023-12-24T13:23:33.472Z,-0.19
2023-12-24T13:26:04.085Z,-0.23
2023-12-24T13:28:31.229Z,-0.26
2023-12-24T13:30:58.546Z,-0.31
2023-12-24T13:33:25.971Z,-0.34
2023-12-24T13:35:53.543Z,-0.40
2023-12-24T13:38:21.960Z,-0.42
2023-12-24T13:40:49.388Z,-0.55
2023-12-24T13:43:16.844Z,-0.64
2023-12-24T13:45:44.521Z,-0.63
2023-12-24T13:48:14.881Z,-0.65
2023-12-24T13:50:43.505Z,-0.75
2023-12-24T13:53:19.435Z,-0.86
2023-12-24T13:55:59.488Z,-0.86
2023-12-24T13:58:28.344Z,-0.86
2023-12-24T14:00:57.926Z,-0.84
2023-12-24T14:03:26.694Z,-0.85
2023-12-24T14:05:54.566Z,-0.86
2023-12-24T14:08:24.602Z,-0.85
2023-12-24T14:10:51.847Z,-0.90
2023-12-24T14:13:19.031Z,-0.89
2023-12-24T14:15:46.214Z,-0.90
2023-12-24T14:18:13.576Z,-0.86
2023-12-24T14:20:41.030Z,-0.81
2023-12-24T14:23:09.727Z,-0.80
2023-12-24T14:25:37.000Z,-0.79
2023-12-24T14:28:04.906Z,-0.80
2023-12-24T14:30:32.280Z,-0.77
2023-12-24T14:33:01.148Z,-0.78
2023-12-24T14:35:29.995Z,-0.85
2023-12-24T14:37:57.622Z,-0.91
2023-12-24T14:40:24.999Z,-0.90
2023-12-24T14:42:52.841Z,-0.91
2023-12-24T14:45:20.376Z,-0.87
2023-12-24T14:47:48.075Z,-0.91
2023-12-24T14:50:15.375Z,-0.87
2023-12-24T14:52:42.485Z,-0.87
2023-12-24T14:55:10.042Z,-0.84
2023-12-24T14:57:37.422Z,-0.83
2023-12-24T15:00:06.552Z,-0.91
2023-12-24T15:02:33.838Z,-0.91
2023-12-24T15:05:01.780Z,-0.90
2023-12-24T15:07:31.751Z,-0.91
2023-12-24T15:10:00.524Z,-0.86
2023-12-24T15:12:27.776Z,-0.85
2023-12-24T15:14:56.347Z,-0.84
2023-12-24T15:17:23.821Z,-0.86
2023-12-24T15:19:52.147Z,-0.86
2023-12-24T15:22:19.330Z,-0.81
2023-12-24T15:24:46.418Z,-0.79
2023-12-24T15:27:13.498Z,-0.83
2023-12-24T15:29:40.715Z,-0.84
2023-12-24T15:32:09.260Z,-0.79
2023-12-24T15:34:36.357Z,-0.76
2023-12-24T15:37:03.530Z,-0.76
2023-12-24T15:39:31.668Z,-0.70
2023-12-24T15:42:01.346Z,-0.68
2023-12-24T15:44:28.441Z,-0.65
2023-12-24T15:46:55.523Z,-0.66
2023-12-24T15:49:22.564Z,-0.64
2023-12-24T15:51:49.819Z,-0.64
2023-12-24T15:54:19.242Z,-0.65
2023-12-24T15:56:46.467Z,-0.73
2023-12-24T15:59:13.690Z,-0.79
2023-12-24T16:01:44.970Z,-0.80
2023-12-24T16:04:13.503Z,-0.82
2023-12-24T16:06:42.896Z,-0.94
2023-12-24T16:09:10.781Z,-0.99
2023-12-24T16:11:38.290Z,-1.05
2023-12-24T16:14:08.421Z,-1.08
2023-12-24T16:16:36.250Z,-1.11
2023-12-24T16:19:04.708Z,-1.11
2023-12-24T16:21:40.186Z,-1.20
2023-12-24T16:24:08.772Z,-1.24
2023-12-24T16:26:36.436Z,-1.22
2023-12-24T16:29:03.682Z,-1.24
2023-12-24T16:31:30.855Z,-1.20
2023-12-24T16:33:58.117Z,-1.17
2023-12-24T16:36:26.052Z,-1.19
2023-12-24T16:38:55.199Z,-1.16
2023-12-24T16:41:23.980Z,-1.20
2023-12-24T16:43:51.987Z,-1.23
2023-12-24T16:46:19.163Z,-1.25
2023-12-24T16:48:46.589Z,-1.27
2023-12-24T16:51:17.945Z,-1.28
2023-12-24T16:53:49.171Z,-1.27
2023-12-24T16:56:16.689Z,-1.27
2023-12-24T16:58:44.639Z,-1.22
2023-12-24T17:01:12.101Z,-1.22
2023-12-24T17:03:39.589Z,-1.19
2023-12-24T17:06:10.530Z,-1.16
2023-12-24T17:08:39.602Z,-1.12
2023-12-24T17:11:07.376Z,-1.11
2023-12-24T17:13:34.865Z,-1.04
2023-12-24T17:16:01.970Z,-1.01
2023-12-24T17:18:33.080Z,-0.98
2023-12-24T17:21:00.911Z,-0.93
2023-12-24T17:23:28.204Z,-0.90
2023-12-24T17:25:55.316Z,-0.91
2023-12-24T17:28:22.493Z,-0.94
2023-12-24T17:30:49.733Z,-0.90
2023-12-24T17:33:17.998Z,-0.87
2023-12-24T17:35:45.885Z,-0.83
2023-12-24T17:38:13.364Z,-0.82
2023-12-24T17:40:40.481Z,-0.83
2023-12-24T17:43:07.731Z,-0.83
2023-12-24T17:45:34.897Z,-0.86
2023-12-24T17:48:09.625Z,-0.87
2023-12-24T17:50:44.652Z,-0.84
2023-12-24T17:53:13.010Z,-0.84
2023-12-24T17:55:40.539Z,-0.86
2023-12-24T17:58:07.761Z,-0.87
2023-12-24T18:00:38.237Z,-0.84
2023-12-24T18:03:05.519Z,-0.83
2023-12-24T18:05:32.631Z,-0.86
2023-12-24T18:07:59.839Z,-0.85
2023-12-24T18:10:26.981Z,-0.87
2023-12-24T18:12:54.381Z,-0.84
2023-12-24T18:15:21.907Z,-0.85
2023-12-24T18:17:49.206Z,-0.91
2023-12-24T18:20:17.191Z,-0.90
2023-12-24T18:22:44.549Z,-0.86
2023-12-24T18:25:11.744Z,-0.88
2023-12-24T18:27:38.888Z,-0.87
2023-12-24T18:30:06.632Z,-0.91
2023-12-24T18:32:33.914Z,-0.89
2023-12-24T18:35:01.188Z,-0.94
2023-12-24T18:37:31.379Z,-1.00
2023-12-24T18:39:58.691Z,-1.00
2023-12-24T18:42:25.895Z,-0.97
2023-12-24T18:44:53.449Z,-0.93
2023-12-24T18:47:20.802Z,-0.91
2023-12-24T18:49:47.964Z,-0.91
2023-12-24T18:52:18.079Z,-0.90
2023-12-24T18:54:47.165Z,-0.84
2023-12-24T18:57:15.104Z,-0.84
2023-12-24T18:59:42.245Z,-0.89
2023-12-24T19:02:09.368Z,-0.86
2023-12-24T19:04:37.259Z,-0.86
2023-12-24T19:07:07.777Z,-0.83
2023-12-24T19:09:35.401Z,-0.83
2023-12-24T19:12:02.776Z,-0.87
2023-12-24T19:14:29.952Z,-0.83
2023-12-24T19:16:57.158Z,-0.76
2023-12-24T19:19:24.185Z,-0.70
2023-12-24T19:21:51.498Z,-0.68
2023-12-24T19:24:23.398Z,-0.68
2023-12-24T19:26:53.645Z,-0.79
2023-12-24T19:29:20.853Z,-0.81
2023-12-24T19:31:49.104Z,-0.83
2023-12-24T19:34:16.289Z,-0.80
2023-12-24T19:36:44.194Z,-0.78
2023-12-24T19:39:11.272Z,-0.77
2023-12-24T19:41:41.367Z,-0.77
2023-12-24T19:44:08.536Z,-0.73
2023-12-24T19:46:35.791Z,-0.75
2023-12-24T19:49:03.158Z,-0.80
2023-12-24T19:51:30.354Z,-0.85
2023-12-24T19:53:57.457Z,-0.86
2023-12-24T19:56:24.960Z,-0.81
2023-12-24T19:58:53.025Z,-0.75
2023-12-24T20:01:30.958Z,-0.73
2023-12-24T20:04:02.986Z,-0.74
2023-12-24T20:06:30.834Z,-0.76
2023-12-24T20:08:58.105Z,-0.80
2023-12-24T20:11:25.449Z,-0.79
2023-12-24T20:13:52.534Z,-0.79
2023-12-24T20:16:19.761Z,-0.76
2023-12-24T20:18:47.012Z,-0.73
2023-12-24T20:21:14.241Z,-0.75
2023-12-24T20:23:45.592Z,-0.77
2023-12-24T20:26:12.810Z,-0.79
2023-12-24T20:28:39.980Z,-0.78
2023-12-24T20:31:12.991Z,-0.80
2023-12-24T20:33:42.205Z,-0.82
2023-12-24T20:36:10.959Z,-0.83
2023-12-24T20:38:38.468Z,-0.87
2023-12-24T20:41:05.681Z,-0.87
2023-12-24T20:43:33.287Z,-0.85
2023-12-24T20:46:00.490Z,-0.84
2023-12-24T20:48:28.155Z,-0.80
2023-12-24T20:50:55.770Z,-0.77
2023-12-24T20:53:24.088Z,-0.80
2023-12-24T20:55:52.121Z,-0.81
2023-12-24T20:58:19.378Z,-0.84
2023-12-24T21:00:46.390Z,-0.80
2023-12-24T21:03:13.683Z,-0.74
2023-12-24T21:05:41.003Z,-0.73
2023-12-24T21:08:08.282Z,-0.70
2023-12-24T21:10:38.493Z,-0.61
2023-12-24T21:13:05.659Z,-0.55
2023-12-24T21:15:32.814Z,-0.51
2023-12-24T21:18:00.071Z,-0.55
2023-12-24T21:20:27.389Z,-0.62
2023-12-24T21:22:54.747Z,-0.58
2023-12-24T21:25:22.016Z,-0.48
2023-12-24T21:27:49.276Z,-0.47
2023-12-24T21:30:16.592Z,-0.40
2023-12-24T21:32:43.936Z,-0.24
2023-12-24T21:35:11.190Z,-0.24
2023-12-24T21:37:38.400Z,-0.17
2023-12-24T21:40:07.028Z,-0.16
2023-12-24T21:42:34.140Z,-0.05
2023-12-24T21:45:01.264Z,-0.06
2023-12-24T21:47:29.070Z,-0.05
2023-12-24T21:49:56.729Z,-0.03
2023-12-24T21:52:23.948Z,0.02
2023-12-24T21:54:51.275Z,0.03
2023-12-24T21:57:20.215Z,0.10
2023-12-24T21:59:47.296Z,0.14
2023-12-24T22:02:14.484Z,0.13
2023-12-24T22:04:41.910Z,0.12
2023-12-24T22:07:09.098Z,0.14
2023-12-24T22:10:01.086Z,0.14
2023-12-24T22:12:28.471Z,0.12
2023-12-24T22:14:55.756Z,0.11
2023-12-24T22:17:23.178Z,0.07
2023-12-24T22:19:50.356Z,0.06
2023-12-24T22:22:17.514Z,0.02
2023-12-24T22:24:44.618Z,-0.05
2023-12-24T22:27:11.697Z,-0.20
2023-12-24T22:29:41.739Z,-0.18
2023-12-24T22:32:08.832Z,-0.17
2023-12-24T22:34:36.222Z,-0.24
2023-12-24T22:37:03.896Z,-0.22
2023-12-24T22:39:31.245Z,-0.20
2023-12-24T22:41:58.396Z,-0.17
2023-12-24T22:44:26.874Z,-0.18
2023-12-24T22:46:53.959Z,-0.27
2023-12-24T22:49:21.529Z,-0.22
2023-12-24T22:51:48.767Z,-0.18
2023-12-24T22:54:16.286Z,-0.15
2023-12-24T22:56:43.470Z,-0.22
2023-12-24T22:59:10.791Z,-0.14
2023-12-24T23:01:44.841Z,-0.04
2023-12-24T23:04:12.298Z,-0.01
2023-12-24T23:06:39.516Z,-0.01
2023-12-24T23:09:07.041Z,-0.03
2023-12-24T23:11:34.222Z,-0.04
2023-12-24T23:14:01.416Z,-0.08
2023-12-24T23:16:28.607Z,-0.09
2023-12-24T23:18:55.827Z,-0.10
2023-12-24T23:21:23.107Z,-0.07
2023-12-24T23:23:50.364Z,0.01
2023-12-24T23:26:17.572Z,-0.01
2023-12-24T23:28:44.728Z,0.06
2023-12-24T23:31:11.882Z,0.17
2023-12-24T23:33:39.043Z,0.12
2023-12-24T23:36:12.275Z,0.17
2023-12-24T23:38:40.435Z,0.29
2023-12-24T23:41:07.750Z,0.29
2023-12-24T23:43:37.758Z,0.29
2023-12-24T23:46:06.631Z,0.32
2023-12-24T23:48:33.970Z,0.39
2023-12-24T23:51:01.308Z,0.37
2023-12-24T23:53:28.440Z,0.31
2023-12-24T23:55:55.626Z,0.43
2023-12-24T23:58:22.645Z,0.50
